createdAt,value
2018-03-20T00:00:48.954Z,27.53
2018-03-20T00:03:16.513Z,26.23
2018-03-20T00:05:44.073Z,21.90
2018-03-20T00:08:11.644Z,26.27
2018-03-20T00:10:39.265Z,20.40
2018-03-20T00:13:06.910Z,26.23
2018-03-20T00:15:34.657Z,21.13
2018-03-20T00:18:02.473Z,19.97
2018-03-20T00:20:30.042Z,21.50
2018-03-20T00:22:57.670Z,22.23
2018-03-20T00:25:25.221Z,21.77
2018-03-20T00:27:53.045Z,20.23
2018-03-20T00:30:20.950Z,18.20
2018-03-20T00:32:48.581Z,15.97
2018-03-20T00:35:16.400Z,17.10
2018-03-20T00:37:44.110Z,19.57
2018-03-20T00:40:11.731Z,20.07
2018-03-20T00:42:39.431Z,17.30
2018-03-20T00:45:06.991Z,17.03
2018-03-20T00:47:34.554Z,15.50
2018-03-20T00:50:02.304Z,14.93
2018-03-20T00:52:29.890Z,15.83
2018-03-20T00:54:57.452Z,14.03
2018-03-20T00:57:25.263Z,13.20
2018-03-20T00:59:52.814Z,14.73
2018-03-20T01:02:20.699Z,12.00
2018-03-20T01:04:48.251Z,13.53
2018-03-20T01:07:15.810Z,12.13
2018-03-20T01:09:43.463Z,12.00
2018-03-20T01:12:11.083Z,11.47
2018-03-20T01:14:38.888Z,12.33
2018-03-20T01:17:06.445Z,11.53
2018-03-20T01:19:34.005Z,14.70
2018-03-20T01:22:01.743Z,23.17
2018-03-20T01:24:29.357Z,13.70
2018-03-20T01:26:56.969Z,14.43
2018-03-20T01:29:24.525Z,11.50
2018-03-20T01:31:52.279Z,11.70
2018-03-20T01:34:19.826Z,11.17
2018-03-20T01:36:47.634Z,12.27
2018-03-20T01:39:15.203Z,12.70
2018-03-20T01:41:42.778Z,15.47
2018-03-20T01:44:10.492Z,17.13
2018-03-20T01:46:38.117Z,13.30
2018-03-20T01:49:05.707Z,17.73
2018-03-20T01:51:33.270Z,19.57
2018-03-20T01:54:00.838Z,20.23
2018-03-20T01:56:28.394Z,21.67
2018-03-20T01:58:56.210Z,19.50
2018-03-20T02:01:23.765Z,17.93
2018-03-20T02:03:51.326Z,17.13
2018-03-20T02:06:19.030Z,16.80
2018-03-20T02:08:46.649Z,14.27
2018-03-20T02:11:14.202Z,12.27
2018-03-20T02:13:41.774Z,13.23
2018-03-20T02:16:09.339Z,13.00
2018-03-20T02:18:36.902Z,13.30
2018-03-20T02:21:04.672Z,14.30
2018-03-20T02:23:32.221Z,13.13
2018-03-20T02:25:59.786Z,12.30
2018-03-20T02:28:27.343Z,21.27
2018-03-20T02:30:54.966Z,15.50
2018-03-20T02:33:22.526Z,16.03
2018-03-20T02:35:50.089Z,11.90
2018-03-20T02:38:17.663Z,11.77
2018-03-20T02:40:45.290Z,11.13
2018-03-20T02:43:12.863Z,52.17
2018-03-20T02:45:40.649Z,48.20
2018-03-20T02:48:08.263Z,38.03
2018-03-20T02:50:35.833Z,47.63
2018-03-20T02:53:03.411Z,24.43
2018-03-20T02:55:30.986Z,15.80
2018-03-20T02:57:58.715Z,14.47
2018-03-20T03:00:26.458Z,16.37
2018-03-20T03:02:54.045Z,21.80
2018-03-20T03:05:21.889Z,16.73
2018-03-20T03:07:49.502Z,17.07
2018-03-20T03:10:17.229Z,15.03
2018-03-20T03:12:45.047Z,20.13
2018-03-20T03:15:12.678Z,13.87
2018-03-20T03:17:40.255Z,20.93
2018-03-20T03:20:08.002Z,18.80
2018-03-20T03:22:35.612Z,22.25
2018-03-20T03:25:03.234Z,22.90
2018-03-20T03:27:31.007Z,17.40
2018-03-20T03:29:58.566Z,16.40
2018-03-20T03:32:26.142Z,19.60
2018-03-20T03:34:53.720Z,52.13
2018-03-20T03:37:21.275Z,15.87
2018-03-20T03:39:48.857Z,16.80
2018-03-20T03:42:16.409Z,15.93
2018-03-20T03:44:43.984Z,14.47
2018-03-20T03:47:11.799Z,25.10
2018-03-20T03:49:39.616Z,34.83
2018-03-20T03:52:07.436Z,16.00
2018-03-20T03:54:35.254Z,13.47
2018-03-20T03:57:02.833Z,26.07
2018-03-20T03:59:30.589Z,23.20
2018-03-20T04:01:58.150Z,11.93
2018-03-20T04:04:25.825Z,13.57
2018-03-20T04:06:53.398Z,14.90
2018-03-20T04:09:21.162Z,14.70
2018-03-20T04:11:48.807Z,14.23
2018-03-20T04:14:16.370Z,14.87
2018-03-20T04:16:44.217Z,13.02
2018-03-20T04:19:11.786Z,18.80
2018-03-20T04:21:39.346Z,10.73
2018-03-20T04:24:06.919Z,12.83
2018-03-20T04:26:34.474Z,12.13
2018-03-20T04:29:02.183Z,12.13
2018-03-20T04:31:29.738Z,13.40
2018-03-20T04:33:57.367Z,13.97
2018-03-20T04:36:25.160Z,12.07
2018-03-20T04:38:52.977Z,15.33
2018-03-20T04:41:20.573Z,24.40
2018-03-20T04:43:48.315Z,16.60
2018-03-20T04:46:15.882Z,15.37
2018-03-20T04:48:43.438Z,15.17
2018-03-20T04:51:11.038Z,11.13
2018-03-20T04:53:38.618Z,11.85
2018-03-20T04:56:06.198Z,8.85
2018-03-20T04:58:34.023Z,11.55
2018-03-20T05:01:01.593Z,11.37
2018-03-20T05:03:29.168Z,12.03
2018-03-20T05:05:56.731Z,15.02
2018-03-20T05:08:24.310Z,9.13
2018-03-20T05:10:51.897Z,12.60
2018-03-20T05:13:19.534Z,21.67
2018-03-20T05:15:47.147Z,19.87
2018-03-20T05:18:14.964Z,13.52
2018-03-20T05:20:48.064Z,16.20
2018-03-20T05:26:20.358Z,14.98
2018-03-20T05:28:47.961Z,16.87
2018-03-20T05:31:15.796Z,36.38
2018-03-20T05:33:43.734Z,35.47
2018-03-20T05:36:11.349Z,20.40
2018-03-20T05:38:39.158Z,11.97
2018-03-20T05:41:06.821Z,11.43
2018-03-20T05:43:34.414Z,12.17
2018-03-20T05:46:02.215Z,13.37
2018-03-20T05:48:30.263Z,11.00
2018-03-20T05:51:03.413Z,11.20
2018-03-20T05:53:30.999Z,22.77
2018-03-20T05:55:58.603Z,27.37
2018-03-20T05:58:26.214Z,11.63
2018-03-20T06:00:53.810Z,12.47
2018-03-20T06:03:21.537Z,12.73
2018-03-20T06:05:49.098Z,23.30
2018-03-20T06:08:16.722Z,18.70
2018-03-20T06:10:44.301Z,29.83
2018-03-20T06:13:11.862Z,35.43
2018-03-20T06:15:39.532Z,15.63
2018-03-20T06:18:07.086Z,23.87
2018-03-20T06:20:34.886Z,92.60
2018-03-20T06:23:02.445Z,31.80
2018-03-20T06:25:30.071Z,12.97
2018-03-20T06:27:57.690Z,47.67
2018-03-20T06:30:25.272Z,27.67
2018-03-20T06:32:53.074Z,30.50
2018-03-20T06:35:20.717Z,40.23
2018-03-20T06:37:48.292Z,58.40
2018-03-20T06:40:16.028Z,20.40
2018-03-20T06:42:43.654Z,21.20
2018-03-20T06:45:11.215Z,27.03
2018-03-20T06:47:38.951Z,24.80
2018-03-20T06:50:06.666Z,29.00
2018-03-20T06:52:34.308Z,17.87
2018-03-20T06:55:01.890Z,20.60
2018-03-20T06:57:29.545Z,20.90
2018-03-20T06:59:57.166Z,27.20
2018-03-20T07:02:24.727Z,17.23
2018-03-20T07:04:52.289Z,20.60
2018-03-20T07:07:19.860Z,21.33
2018-03-20T07:09:47.643Z,23.70
2018-03-20T07:12:15.252Z,21.60
2018-03-20T07:14:42.828Z,26.50
2018-03-20T07:17:10.399Z,20.07
2018-03-20T07:19:38.007Z,20.57
2018-03-20T07:22:05.640Z,25.77
2018-03-20T07:24:33.227Z,18.07
2018-03-20T07:27:00.958Z,25.03
2018-03-20T07:29:28.773Z,30.30
2018-03-20T07:31:56.505Z,74.77
2018-03-20T07:34:24.114Z,63.47
2018-03-20T07:36:51.841Z,30.63
2018-03-20T07:39:19.474Z,26.87
2018-03-20T07:41:47.278Z,24.00
2018-03-20T07:44:14.910Z,26.97
2018-03-20T07:46:42.628Z,21.03
2018-03-20T07:49:10.222Z,63.83
2018-03-20T07:51:37.794Z,37.40
2018-03-20T07:54:05.534Z,28.50
2018-03-20T07:56:33.388Z,21.27
2018-03-20T07:59:00.957Z,17.70
2018-03-20T08:01:28.685Z,30.13
2018-03-20T08:03:56.454Z,54.80
2018-03-20T08:06:24.010Z,28.13
2018-03-20T08:08:51.578Z,21.83
2018-03-20T08:11:19.397Z,23.07
2018-03-20T08:13:47.217Z,23.07
2018-03-20T08:16:14.780Z,21.37
2018-03-20T08:18:42.346Z,21.27
2018-03-20T08:21:09.951Z,33.20
2018-03-20T08:23:37.505Z,21.27
2018-03-20T08:26:05.083Z,19.17
2018-03-20T08:28:32.650Z,27.70
2018-03-20T08:31:00.222Z,26.53
2018-03-20T08:33:27.955Z,18.87
2018-03-20T08:35:55.567Z,19.10
2018-03-20T08:38:23.123Z,18.83
2018-03-20T08:40:50.908Z,24.03
2018-03-20T08:43:18.476Z,26.00
2018-03-20T08:45:46.245Z,169.00
2018-03-20T08:48:14.079Z,30.03
2018-03-20T08:50:41.715Z,110.67
2018-03-20T08:53:09.374Z,69.80
2018-03-20T08:55:37.055Z,201.77
2018-03-20T08:58:04.665Z,17.53
2018-03-20T09:00:32.304Z,54.30
2018-03-20T09:02:59.870Z,25.60
2018-03-20T09:05:27.548Z,30.67
2018-03-20T09:07:55.106Z,11.53
2018-03-20T09:10:23.731Z,12.17
2018-03-20T09:12:51.289Z,30.87
2018-03-20T09:15:18.858Z,15.33
2018-03-20T09:17:46.684Z,17.80
2018-03-20T09:20:14.503Z,24.30
2018-03-20T09:22:42.082Z,19.87
2018-03-20T09:25:10.129Z,15.40
2018-03-20T09:27:37.967Z,57.97
2018-03-20T09:30:05.575Z,62.47
2018-03-20T09:32:33.380Z,56.70
2018-03-20T09:35:01.072Z,75.10
2018-03-20T09:37:28.665Z,24.97
2018-03-20T09:39:56.388Z,34.87
2018-03-20T09:42:24.090Z,42.40
2018-03-20T09:44:51.768Z,24.73
2018-03-20T09:47:19.475Z,79.17
2018-03-20T09:49:47.192Z,14.40
2018-03-20T09:52:14.823Z,242.00
2018-03-20T09:54:42.458Z,20.33
2018-03-20T09:57:10.018Z,40.07
2018-03-20T09:59:37.578Z,21.87
2018-03-20T10:02:05.396Z,16.10
2018-03-20T10:04:32.974Z,37.87
2018-03-20T10:07:00.542Z,32.73
2018-03-20T10:09:28.098Z,73.37
2018-03-20T10:11:55.714Z,31.20
2018-03-20T10:14:23.279Z,24.73
2018-03-20T10:16:51.018Z,23.03
2018-03-20T10:19:18.811Z,21.03
2018-03-20T10:21:46.374Z,21.47
2018-03-20T10:24:13.950Z,17.30
2018-03-20T10:26:41.518Z,40.20
2018-03-20T10:29:09.154Z,24.63
2018-03-20T10:31:36.819Z,18.67
2018-03-20T10:34:04.382Z,19.27
2018-03-20T10:36:32.051Z,16.30
2018-03-20T10:38:59.690Z,15.73
2018-03-20T10:41:27.499Z,42.27
2018-03-20T10:43:55.058Z,18.80
2018-03-20T10:46:22.831Z,40.43
2018-03-20T10:48:50.390Z,20.63
2018-03-20T10:51:17.966Z,16.63
2018-03-20T10:53:45.530Z,17.37
2018-03-20T10:56:13.088Z,29.00
2018-03-20T10:58:40.663Z,22.27
2018-03-20T11:01:08.262Z,18.33
2018-03-20T11:03:35.827Z,65.83
2018-03-20T11:06:03.404Z,21.90
2018-03-20T11:08:31.082Z,16.47
2018-03-20T11:10:58.775Z,15.37
2018-03-20T11:13:26.498Z,19.40
2018-03-20T11:15:54.207Z,33.77
2018-03-20T11:18:21.842Z,23.60
2018-03-20T11:20:49.585Z,20.23
2018-03-20T11:23:17.141Z,17.00
2018-03-20T11:25:44.768Z,16.40
2018-03-20T11:28:12.537Z,24.23
2018-03-20T11:30:40.094Z,24.63
2018-03-20T11:33:07.662Z,21.77
2018-03-20T11:35:35.523Z,15.70
2018-03-20T11:38:03.101Z,22.40
2018-03-20T11:40:30.842Z,16.07
2018-03-20T11:42:58.645Z,38.53
2018-03-20T11:45:26.213Z,54.00
2018-03-20T11:47:54.044Z,22.53
2018-03-20T11:50:21.760Z,20.60
2018-03-20T11:52:49.347Z,32.87
2018-03-20T11:55:17.135Z,20.23
2018-03-20T11:57:44.956Z,18.77
2018-03-20T12:00:12.773Z,21.63
2018-03-20T12:02:40.821Z,19.27
2018-03-20T12:05:08.390Z,11.90
2018-03-20T12:07:36.015Z,10.20
2018-03-20T12:10:03.817Z,11.13
2018-03-20T12:12:31.669Z,13.70
2018-03-20T12:14:59.294Z,12.43
2018-03-20T12:17:26.893Z,10.87
2018-03-20T12:19:54.733Z,16.87
2018-03-20T12:22:22.323Z,40.87
2018-03-20T12:24:49.894Z,23.90
2018-03-20T12:27:17.474Z,13.27
2018-03-20T12:29:45.025Z,9.00
2018-03-20T12:32:12.808Z,9.87
2018-03-20T12:34:40.384Z,18.37
2018-03-20T12:37:07.947Z,88.50
2018-03-20T12:39:35.762Z,27.57
2018-03-20T12:42:03.373Z,352.40
2018-03-20T12:44:31.090Z,10.50
2018-03-20T12:46:58.655Z,10.57
2018-03-20T12:49:26.236Z,13.03
2018-03-20T12:51:53.844Z,14.77
2018-03-20T12:54:21.562Z,16.07
2018-03-20T12:56:49.388Z,13.00
2018-03-20T12:59:16.960Z,14.97
2018-03-20T13:01:44.535Z,25.07
2018-03-20T13:04:12.098Z,75.37
2018-03-20T13:06:39.860Z,13.47
2018-03-20T13:09:07.662Z,16.07
2018-03-20T13:11:35.397Z,21.73
2018-03-20T13:14:03.094Z,16.20
2018-03-20T13:16:30.714Z,11.83
2018-03-20T13:18:58.342Z,15.07
2018-03-20T13:21:26.169Z,13.87
2018-03-20T13:23:53.763Z,12.90
2018-03-20T13:26:21.396Z,18.20
2018-03-20T13:28:49.225Z,16.07
2018-03-20T13:31:17.042Z,21.27
2018-03-20T13:33:44.622Z,37.57
2018-03-20T13:36:12.187Z,34.37
2018-03-20T13:38:39.814Z,16.27
2018-03-20T13:41:07.615Z,18.33
2018-03-20T13:43:35.239Z,35.23
2018-03-20T13:46:03.050Z,37.13
2018-03-20T13:48:30.622Z,22.47
2018-03-20T13:50:58.680Z,19.10
2018-03-20T13:53:28.305Z,16.07
2018-03-20T13:55:56.131Z,55.13
2018-03-20T13:58:23.949Z,81.47
2018-03-20T14:00:51.583Z,46.20
2018-03-20T14:03:19.174Z,28.10
2018-03-20T14:05:46.745Z,21.13
2018-03-20T14:08:14.348Z,92.60
2018-03-20T14:10:42.018Z,25.57
2018-03-20T14:13:09.599Z,40.83
2018-03-20T14:15:37.174Z,66.40
2018-03-20T14:18:04.789Z,53.53
2018-03-20T14:20:32.359Z,71.67
2018-03-20T14:23:00.128Z,18.87
2018-03-20T14:25:27.722Z,38.40
2018-03-20T14:27:55.513Z,28.50
2018-03-20T14:30:23.324Z,17.83
2018-03-20T14:32:51.042Z,42.73
2018-03-20T14:35:18.618Z,14.70
2018-03-20T14:37:46.378Z,16.40
2018-03-20T14:40:14.197Z,16.50
2018-03-20T14:42:41.782Z,19.70
2018-03-20T14:45:09.534Z,12.73
2018-03-20T14:47:37.119Z,19.93
2018-03-20T14:50:04.764Z,16.03
2018-03-20T14:52:32.354Z,23.30
2018-03-20T14:54:59.979Z,24.23
2018-03-20T14:57:27.724Z,31.70
2018-03-20T14:59:55.432Z,15.67
2018-03-20T15:02:23.020Z,17.33
2018-03-20T15:04:50.757Z,21.63
2018-03-20T15:07:18.356Z,29.40
2018-03-20T15:09:45.941Z,20.43
2018-03-20T15:12:13.622Z,11.87
2018-03-20T15:14:41.449Z,11.80
2018-03-20T15:17:09.267Z,11.23
2018-03-20T15:19:36.835Z,16.17
2018-03-20T15:22:04.483Z,610.93
2018-03-20T15:24:32.064Z,16.10
2018-03-20T15:26:59.839Z,28.03
2018-03-20T15:29:27.422Z,27.27
2018-03-20T15:31:54.977Z,20.53
2018-03-20T15:34:22.542Z,17.80
2018-03-20T15:36:50.108Z,23.73
2018-03-20T15:39:17.723Z,17.17
2018-03-20T15:41:45.321Z,16.57
2018-03-20T15:44:13.046Z,15.77
2018-03-20T15:46:40.674Z,25.53
2018-03-20T15:49:08.341Z,47.43
2018-03-20T15:51:35.903Z,34.60
2018-03-20T15:54:03.478Z,27.40
2018-03-20T15:56:31.039Z,28.13
2018-03-20T15:58:58.602Z,32.63
2018-03-20T16:01:26.177Z,38.53
2018-03-20T16:03:53.767Z,65.63
2018-03-20T16:06:21.495Z,126.97
2018-03-20T16:08:49.070Z,284.53
2018-03-20T16:11:16.863Z,179.60
2018-03-20T16:13:44.430Z,164.33
2018-03-20T16:16:11.993Z,108.50
2018-03-20T16:18:39.568Z,76.43
2018-03-20T16:21:07.316Z,158.70
2018-03-20T16:23:34.890Z,189.67
2018-03-20T16:26:02.457Z,178.50
2018-03-20T16:28:30.085Z,569.20
2018-03-20T16:30:57.651Z,131.80
2018-03-20T16:33:25.521Z,289.13
2018-03-20T16:35:53.205Z,107.07
2018-03-20T16:38:20.784Z,176.40
2018-03-20T16:40:48.567Z,344.27
2018-03-20T16:43:16.296Z,222.07
2018-03-20T16:45:44.132Z,171.57
2018-03-20T16:48:11.931Z,181.27
2018-03-20T16:50:39.498Z,182.30
2018-03-20T16:53:07.268Z,165.77
2018-03-20T16:55:34.840Z,120.10
2018-03-20T16:58:02.605Z,192.77
2018-03-20T17:00:30.208Z,138.67
2018-03-20T17:02:57.812Z,205.40
2018-03-20T17:05:25.401Z,241.40
2018-03-20T17:07:52.989Z,221.83
2018-03-20T17:10:20.794Z,227.50
2018-03-20T17:12:48.370Z,220.87
2018-03-20T17:15:16.033Z,163.10
2018-03-20T17:17:43.690Z,192.30
2018-03-20T17:20:11.267Z,185.93
2018-03-20T17:22:38.855Z,468.43
2018-03-20T17:25:06.702Z,630.67
2018-03-20T17:27:34.572Z,651.53
2018-03-20T17:30:02.157Z,392.43
2018-03-20T17:32:29.744Z,433.03
2018-03-20T17:34:57.365Z,281.30
2018-03-20T17:37:25.193Z,164.97
2018-03-20T17:39:53.025Z,124.40
2018-03-20T17:42:20.631Z,130.27
2018-03-20T17:44:48.442Z,119.70
2018-03-20T17:47:16.467Z,115.37
2018-03-20T17:49:44.291Z,154.37
2018-03-20T17:52:11.870Z,207.27
2018-03-20T17:54:39.446Z,198.37
2018-03-20T17:57:07.240Z,249.13
2018-03-20T17:59:34.838Z,234.93
2018-03-20T18:02:02.511Z,288.37
2018-03-20T18:04:30.209Z,196.50
2018-03-20T18:06:58.011Z,189.73
2018-03-20T18:09:25.831Z,232.73
2018-03-20T18:11:53.434Z,242.67
2018-03-20T18:14:21.254Z,201.53
2018-03-20T18:16:48.827Z,212.90
2018-03-20T18:19:16.506Z,205.07
2018-03-20T18:21:44.321Z,259.30
2018-03-20T18:24:11.978Z,240.50
2018-03-20T18:26:39.759Z,216.73
2018-03-20T18:29:07.566Z,212.53
2018-03-20T18:31:35.386Z,205.90
2018-03-20T18:34:03.008Z,173.83
2018-03-20T18:36:30.885Z,181.83
2018-03-20T18:38:58.488Z,341.47
2018-03-20T18:41:26.369Z,371.83
2018-03-20T18:43:54.186Z,275.47
2018-03-20T18:46:21.996Z,239.53
2018-03-20T18:48:49.577Z,255.63
2018-03-20T18:51:17.296Z,299.17
2018-03-20T18:53:45.161Z,291.60
2018-03-20T18:56:12.723Z,263.47
2018-03-20T18:58:40.495Z,255.07
2018-03-20T19:01:08.586Z,252.43
2018-03-20T19:03:36.173Z,229.20
2018-03-20T19:06:03.850Z,220.87
2018-03-20T19:08:31.491Z,202.80
2018-03-20T19:10:59.062Z,207.97
2018-03-20T19:13:26.630Z,210.90
2018-03-20T19:15:54.219Z,182.37
2018-03-20T19:18:22.042Z,204.60
2018-03-20T19:20:49.623Z,340.90
2018-03-20T19:23:17.195Z,193.60
2018-03-20T19:25:44.818Z,185.17
2018-03-20T19:28:12.598Z,174.93
2018-03-20T19:30:40.314Z,201.87
2018-03-20T19:33:07.904Z,201.07
2018-03-20T19:35:35.481Z,104.30
2018-03-20T19:38:03.284Z,163.33
2018-03-20T19:40:30.852Z,176.30
2018-03-20T19:42:58.495Z,153.67
2018-03-20T19:45:26.238Z,143.80
2018-03-20T19:47:53.853Z,245.13
2018-03-20T19:50:21.464Z,212.87
2018-03-20T19:52:49.159Z,346.07
2018-03-20T19:55:16.888Z,243.83
2018-03-20T19:57:44.716Z,147.13
2018-03-20T20:00:12.547Z,128.90
2018-03-20T20:02:40.372Z,104.80
2018-03-20T20:05:07.950Z,93.60
2018-03-20T20:07:35.681Z,97.13
2018-03-20T20:10:03.286Z,94.30
2018-03-20T20:12:30.859Z,94.93
2018-03-20T20:14:58.440Z,115.63
2018-03-20T20:17:26.251Z,135.93
2018-03-20T20:19:53.963Z,131.33
2018-03-20T20:22:21.678Z,102.57
2018-03-20T20:24:49.318Z,59.10
2018-03-20T20:27:17.045Z,47.23
2018-03-20T20:29:44.602Z,81.67
2018-03-20T20:32:12.168Z,111.97
2018-03-20T20:34:39.783Z,108.53
2018-03-20T20:37:07.358Z,123.20
2018-03-20T20:39:35.135Z,113.67
2018-03-20T20:42:02.694Z,113.87
2018-03-20T20:44:30.471Z,109.50
2018-03-20T20:46:58.039Z,103.60
2018-03-20T20:49:25.652Z,101.43
2018-03-20T20:51:53.454Z,106.23
2018-03-20T20:54:21.244Z,109.17
2018-03-20T20:56:48.814Z,106.07
2018-03-20T20:59:16.378Z,108.90
2018-03-20T21:01:43.974Z,131.87
2018-03-20T21:04:11.542Z,141.10
2018-03-20T21:06:39.130Z,121.00
2018-03-20T21:09:06.951Z,119.37
2018-03-20T21:11:34.541Z,91.27
2018-03-20T21:14:02.101Z,99.40
2018-03-20T21:16:29.734Z,89.90
2018-03-20T21:18:57.523Z,88.80
2018-03-20T21:21:25.341Z,192.10
2018-03-20T21:23:52.960Z,169.83
2018-03-20T21:26:20.777Z,112.67
2018-03-20T21:28:48.466Z,99.20
2018-03-20T21:31:16.053Z,105.80
2018-03-20T21:33:43.618Z,197.03
2018-03-20T21:36:11.314Z,203.53
2018-03-20T21:38:39.168Z,112.90
2018-03-20T21:41:06.766Z,85.97
2018-03-20T21:43:34.507Z,101.43
2018-03-20T21:46:02.078Z,405.83
2018-03-20T21:48:29.755Z,169.70
2018-03-20T21:50:57.471Z,156.40
2018-03-20T21:53:25.066Z,132.13
2018-03-20T21:55:52.938Z,122.93
2018-03-20T21:58:20.691Z,127.77
2018-03-20T22:00:48.280Z,118.23
2018-03-20T22:03:15.878Z,118.70
2018-03-20T22:05:43.443Z,103.53
2018-03-20T22:08:11.177Z,101.53
2018-03-20T22:10:38.753Z,146.17
2018-03-20T22:13:06.622Z,377.87
2018-03-20T22:15:34.230Z,291.87
2018-03-20T22:18:01.850Z,147.43
2018-03-20T22:20:29.434Z,171.13
2018-03-20T22:22:56.997Z,113.80
2018-03-20T22:25:24.578Z,116.93
2018-03-20T22:27:52.169Z,93.43
2018-03-20T22:30:19.826Z,133.90
2018-03-20T22:32:47.543Z,555.50
2018-03-20T22:35:15.390Z,245.20
2018-03-20T22:37:42.958Z,183.17
2018-03-20T22:40:10.599Z,114.27
2018-03-20T22:42:38.439Z,79.20
2018-03-20T22:45:06.284Z,82.60
2018-03-20T22:47:34.074Z,76.07
2018-03-20T22:50:01.893Z,699.87
2018-03-20T22:52:29.519Z,198.27
2018-03-20T22:54:57.114Z,99.30
2018-03-20T22:57:24.675Z,88.03
2018-03-20T22:59:52.464Z,84.03
2018-03-20T23:02:20.046Z,83.67
2018-03-20T23:04:47.622Z,807.07
2018-03-20T23:07:15.198Z,274.37
2018-03-20T23:09:42.928Z,192.10
2018-03-20T23:12:10.518Z,218.60
2018-03-20T23:14:38.081Z,480.63
2018-03-20T23:17:05.685Z,491.03
2018-03-20T23:19:33.299Z,475.40
2018-03-20T23:22:01.126Z,673.70
2018-03-20T23:24:28.723Z,98.20
2018-03-20T23:26:56.342Z,77.97
2018-03-20T23:29:23.931Z,76.23
2018-03-20T23:31:51.580Z,76.10
2018-03-20T23:34:19.154Z,74.10
2018-03-20T23:36:46.982Z,93.20
2018-03-20T23:39:14.557Z,132.63
2018-03-20T23:41:42.130Z,85.60
2018-03-20T23:44:09.699Z,77.33
2018-03-20T23:46:37.274Z,67.57
2018-03-20T23:49:05.015Z,66.13
2018-03-20T23:51:32.588Z,145.23
2018-03-20T23:54:00.321Z,96.20
2018-03-20T23:56:28.077Z,90.43
2018-03-20T23:58:55.635Z,87.57
